createdAt,value
2018-09-09T00:00:21.922Z,95058.95
2018-09-09T00:02:50.938Z,95059.45
2018-09-09T00:05:20.174Z,95059.98
2018-09-09T00:07:49.283Z,95060.55
2018-09-09T00:10:17.925Z,95057.91
2018-09-09T00:12:46.713Z,95062.42
2018-09-09T00:15:15.458Z,95060.31
2018-09-09T00:17:44.477Z,95059.19
2018-09-09T00:20:13.234Z,95054.73
2018-09-09T00:22:42.134Z,95054.20
2018-09-09T00:25:11.010Z,95053.45
2018-09-09T00:27:39.733Z,95056.38
2018-09-09T00:30:08.836Z,95056.95
2018-09-09T00:32:37.808Z,95055.06
2018-09-09T00:35:07.139Z,95056.91
2018-09-09T00:37:36.240Z,95065.59
2018-09-09T00:40:05.020Z,95061.63
2018-09-09T00:45:07.822Z,95059.22
2018-09-09T00:47:36.829Z,95060.70
2018-09-09T00:50:10.921Z,95067.89
2018-09-09T00:52:44.942Z,95066.27
2018-09-09T00:55:14.114Z,95066.31
2018-09-09T00:57:42.896Z,95067.14
2018-09-09T01:00:11.995Z,95069.84
2018-09-09T01:02:41.027Z,95070.41
2018-09-09T01:05:09.888Z,95063.81
2018-09-09T01:07:38.768Z,95060.91
2018-09-09T01:10:07.466Z,95052.20
2018-09-09T01:12:36.330Z,95051.67
2018-09-09T01:15:05.550Z,95048.47
2018-09-09T01:17:34.690Z,95053.48
2018-09-09T01:20:03.640Z,95055.19
2018-09-09T01:22:32.433Z,95048.63
2018-09-09T01:25:01.546Z,95052.72
2018-09-09T01:27:30.526Z,95056.42
2018-09-09T01:29:59.310Z,95060.64
2018-09-09T01:32:28.250Z,95062.52
2018-09-09T01:34:57.422Z,95057.18
2018-09-09T01:37:26.573Z,95064.56
2018-09-09T01:39:55.310Z,95060.88
2018-09-09T01:42:24.168Z,95067.93
2018-09-09T01:44:53.518Z,95062.95
2018-09-09T01:47:22.298Z,95064.86
2018-09-09T01:49:51.589Z,95068.00
2018-09-09T01:52:20.871Z,95060.44
2018-09-09T01:54:49.967Z,95052.84
2018-09-09T01:57:18.878Z,95066.31
2018-09-09T01:59:47.639Z,95066.58
2018-09-09T02:02:16.427Z,95061.59
2018-09-09T02:04:45.426Z,95067.23
2018-09-09T02:07:14.778Z,95065.16
2018-09-09T02:09:43.414Z,95065.88
2018-09-09T02:12:12.088Z,95068.50
2018-09-09T02:14:40.922Z,95070.62
2018-09-09T02:17:09.872Z,95072.53
2018-09-09T02:19:38.667Z,95071.81
2018-09-09T02:22:07.680Z,95073.62
2018-09-09T02:24:36.806Z,95070.23
2018-09-09T02:27:05.995Z,95067.75
2018-09-09T02:29:34.895Z,95072.00
2018-09-09T02:32:03.920Z,95070.97
2018-09-09T02:34:32.852Z,95073.91
2018-09-09T02:37:01.690Z,95073.38
2018-09-09T02:39:30.456Z,95067.59
2018-09-09T02:41:59.192Z,95071.00
2018-09-09T02:44:28.459Z,95063.11
2018-09-09T02:46:57.403Z,95064.70
2018-09-09T02:49:26.385Z,95073.89
2018-09-09T02:51:55.190Z,95070.73
2018-09-09T02:54:24.409Z,95073.10
2018-09-09T02:56:53.338Z,95081.28
2018-09-09T02:59:22.207Z,95072.85
2018-09-09T03:01:51.154Z,95072.84
2018-09-09T03:04:20.279Z,95075.73
2018-09-09T03:06:49.239Z,95074.96
2018-09-09T03:09:18.416Z,95013.08
2018-09-09T03:11:47.035Z,95065.47
2018-09-09T03:14:15.920Z,95063.90
2018-09-09T03:16:45.075Z,95062.56
2018-09-09T03:19:13.754Z,95067.30
2018-09-09T03:21:42.811Z,95066.25
2018-09-09T03:24:11.863Z,95071.02
2018-09-09T03:26:40.776Z,95077.05
2018-09-09T03:29:09.892Z,95070.22
2018-09-09T03:31:38.889Z,95072.29
2018-09-09T03:34:07.697Z,95071.23
2018-09-09T03:36:36.457Z,95071.23
2018-09-09T03:39:06.202Z,95069.33
2018-09-09T03:41:34.930Z,95073.30
2018-09-09T03:44:03.997Z,95072.00
2018-09-09T03:46:33.363Z,95080.70
2018-09-09T03:49:02.193Z,95079.80
2018-09-09T03:51:31.139Z,95079.59
2018-09-09T03:53:59.982Z,95086.14
2018-09-09T03:56:28.972Z,95080.58
2018-09-09T03:58:58.242Z,95085.08
2018-09-09T04:01:27.018Z,95079.30
2018-09-09T04:03:56.062Z,95081.95
2018-09-09T04:06:25.312Z,95085.16
2018-09-09T04:08:54.155Z,95089.86
2018-09-09T04:11:23.036Z,95088.78
2018-09-09T04:13:52.037Z,95095.91
2018-09-09T04:16:20.958Z,95094.83
2018-09-09T04:18:50.087Z,95097.24
2018-09-09T04:21:18.974Z,95097.74
2018-09-09T04:23:47.850Z,95100.91
2018-09-09T04:26:16.793Z,95105.66
2018-09-09T04:28:45.734Z,95107.77
2018-09-09T04:31:15.021Z,95103.59
2018-09-09T04:33:44.094Z,95103.34
2018-09-09T04:36:12.962Z,95108.86
2018-09-09T04:38:41.735Z,95112.03
2018-09-09T04:41:10.454Z,95111.23
2018-09-09T04:43:39.291Z,95110.98
2018-09-09T04:46:08.459Z,95117.04
2018-09-09T04:48:37.550Z,95118.38
2018-09-09T04:51:06.603Z,95119.98
2018-09-09T04:53:35.689Z,95122.64
2018-09-09T04:56:04.431Z,95123.67
2018-09-09T04:58:33.399Z,95125.51
2018-09-09T05:01:02.523Z,95123.63
2018-09-09T05:03:31.441Z,95135.20
2018-09-09T05:06:00.351Z,95141.55
2018-09-09T05:08:28.960Z,95137.58
2018-09-09T05:10:57.705Z,95136.20
2018-09-09T05:13:26.910Z,95135.94
2018-09-09T05:15:55.749Z,95139.64
2018-09-09T05:18:24.534Z,95139.88
2018-09-09T05:20:53.816Z,95143.05
2018-09-09T05:23:22.599Z,95146.42
2018-09-09T05:25:51.505Z,95141.13
2018-09-09T05:28:20.523Z,95147.41
2018-09-09T05:30:49.467Z,95143.39
2018-09-09T05:33:18.294Z,95142.02
2018-09-09T05:35:47.264Z,95142.94
2018-09-09T05:38:16.461Z,95140.09
2018-09-09T05:40:45.233Z,95142.94
2018-09-09T05:43:14.032Z,95143.91
2018-09-09T05:45:42.897Z,95140.17
2018-09-09T05:48:11.754Z,95139.24
2018-09-09T05:50:40.854Z,95135.98
2018-09-09T05:53:10.049Z,95145.76
2018-09-09T05:55:38.853Z,95141.08
2018-09-09T05:58:08.420Z,95143.52
2018-09-09T06:00:37.457Z,95143.39
2018-09-09T06:03:06.731Z,95148.06
2018-09-09T06:05:35.439Z,95151.66
2018-09-09T06:08:04.147Z,95150.70
2018-09-09T06:10:32.998Z,95147.53
2018-09-09T06:13:02.054Z,95145.48
2018-09-09T06:15:30.978Z,95147.00
2018-09-09T06:18:00.041Z,95155.14
2018-09-09T06:20:28.888Z,95099.87
2018-09-09T06:22:57.839Z,95159.86
2018-09-09T06:25:26.878Z,95157.20
2018-09-09T06:27:56.058Z,95166.13
2018-09-09T06:30:25.067Z,95161.72
2018-09-09T06:32:54.321Z,95163.16
2018-09-09T06:35:23.263Z,95161.19
2018-09-09T06:37:52.165Z,95160.07
2018-09-09T06:40:21.100Z,95167.01
2018-09-09T06:42:50.266Z,95169.17
2018-09-09T06:45:19.565Z,95164.48
2018-09-09T06:47:48.813Z,95172.50
2018-09-09T06:50:18.081Z,95169.91
2018-09-09T06:52:47.242Z,95176.98
2018-09-09T06:55:16.137Z,95174.27
2018-09-09T06:57:45.280Z,95180.80
2018-09-09T07:00:14.064Z,95122.09
2018-09-09T07:02:43.105Z,95191.17
2018-09-09T07:05:14.720Z,95181.92
2018-09-09T07:07:43.532Z,95178.02
2018-09-09T07:10:12.578Z,95178.83
2018-09-09T07:12:41.562Z,95179.88
2018-09-09T07:15:10.689Z,95179.75
2018-09-09T07:17:39.705Z,95177.60
2018-09-09T07:20:08.931Z,95174.86
2018-09-09T07:22:38.219Z,95172.89
2018-09-09T07:25:07.548Z,95174.22
2018-09-09T07:27:36.816Z,95178.75
2018-09-09T07:30:06.197Z,95173.42
2018-09-09T07:32:35.449Z,95167.08
2018-09-09T07:35:04.407Z,95171.12
2018-09-09T07:37:34.086Z,95178.75
2018-09-09T07:40:03.259Z,95179.05
2018-09-09T07:42:32.042Z,95175.16
2018-09-09T07:45:01.337Z,95171.09
2018-09-09T07:47:30.300Z,95176.80
2018-09-09T07:49:59.356Z,95168.14
2018-09-09T07:52:28.603Z,95176.44
2018-09-09T07:54:57.861Z,95176.12
2018-09-09T07:57:27.266Z,95165.78
2018-09-09T07:59:56.359Z,95169.55
2018-09-09T08:02:25.495Z,95173.42
2018-09-09T08:04:54.343Z,95175.57
2018-09-09T08:07:23.027Z,95162.84
2018-09-09T08:09:51.872Z,95164.16
2018-09-09T08:12:20.712Z,95155.85
2018-09-09T08:14:49.760Z,95163.09
2018-09-09T08:17:18.633Z,95170.88
2018-09-09T08:19:47.578Z,95162.50
2018-09-09T08:22:16.551Z,95158.98
2018-09-09T08:24:45.730Z,95153.42
2018-09-09T08:27:14.734Z,95153.58
2018-09-09T08:29:43.707Z,95155.83
2018-09-09T08:32:12.921Z,95150.79
2018-09-09T08:34:41.900Z,95147.50
2018-09-09T08:37:10.654Z,95150.38
2018-09-09T08:39:39.665Z,95150.12
2018-09-09T08:42:08.512Z,95147.57
2018-09-09T08:44:37.690Z,95141.69
2018-09-09T08:47:06.776Z,95146.30
2018-09-09T08:49:35.648Z,95147.66
2018-09-09T08:52:04.710Z,95132.36
2018-09-09T08:54:33.506Z,95135.83
2018-09-09T08:57:02.409Z,95126.90
2018-09-09T08:59:31.322Z,95130.19
2018-09-09T09:02:00.417Z,95132.56
2018-09-09T09:04:29.152Z,95126.50
2018-09-09T09:06:57.998Z,95126.69
2018-09-09T09:09:26.936Z,95116.94
2018-09-09T09:11:55.993Z,95117.18
2018-09-09T09:14:24.984Z,95108.25
2018-09-09T09:16:54.437Z,95109.50
2018-09-09T09:19:23.373Z,95104.78
2018-09-09T09:21:52.471Z,95103.69
2018-09-09T09:24:21.311Z,95108.95
2018-09-09T09:26:50.594Z,95099.41
2018-09-09T09:29:19.546Z,95100.63
2018-09-09T09:31:48.436Z,95111.21
2018-09-09T09:34:17.306Z,95107.45
2018-09-09T09:36:46.098Z,95105.63
2018-09-09T09:39:15.110Z,95105.59
2018-09-09T09:41:44.231Z,95105.89
2018-09-09T09:44:13.364Z,95104.39
2018-09-09T09:46:42.370Z,95097.73
2018-09-09T09:49:11.540Z,95091.84
2018-09-09T09:51:40.803Z,95100.39
2018-09-09T09:54:09.926Z,95090.17
2018-09-09T09:56:38.831Z,95085.38
2018-09-09T09:59:07.881Z,95083.84
2018-09-09T10:01:36.598Z,95076.66
2018-09-09T10:04:05.307Z,95075.16
2018-09-09T10:06:34.043Z,95072.30
2018-09-09T10:09:03.544Z,95075.73
2018-09-09T10:11:32.608Z,95073.38
2018-09-09T10:14:01.743Z,95063.03
2018-09-09T10:16:31.187Z,95080.36
2018-09-09T10:19:00.254Z,95052.38
2018-09-09T10:21:29.346Z,95080.73
2018-09-09T10:23:58.286Z,95060.59
2018-09-09T10:26:27.615Z,95056.04
2018-09-09T10:28:56.538Z,95052.14
2018-09-09T10:31:25.252Z,95050.91
2018-09-09T10:33:53.974Z,95042.13
2018-09-09T10:36:22.681Z,95036.95
2018-09-09T10:38:52.001Z,95043.76
2018-09-09T10:41:20.903Z,95042.91
2018-09-09T10:43:49.868Z,95037.29
2018-09-09T10:46:18.716Z,95043.89
2018-09-09T10:48:47.795Z,95043.44
2018-09-09T10:51:16.758Z,95032.42
2018-09-09T10:53:45.682Z,95042.52
2018-09-09T10:56:14.830Z,95033.27
2018-09-09T10:58:43.680Z,95031.83
2018-09-09T11:01:12.648Z,95019.32
2018-09-09T11:03:41.344Z,95021.73
2018-09-09T11:06:10.006Z,95030.45
2018-09-09T11:08:38.806Z,95035.34
2018-09-09T11:11:07.842Z,95030.31
2018-09-09T11:13:36.790Z,95005.88
2018-09-09T11:16:05.867Z,95008.22
2018-09-09T11:18:34.885Z,95015.59
2018-09-09T11:21:07.870Z,95009.61
2018-09-09T11:23:37.467Z,95008.59
2018-09-09T11:26:06.646Z,95007.69
2018-09-09T11:28:36.112Z,95011.66
2018-09-09T11:31:04.846Z,95008.00
2018-09-09T11:33:33.600Z,95001.21
2018-09-09T11:36:02.361Z,94990.22
2018-09-09T11:38:31.037Z,94986.41
2018-09-09T11:40:59.991Z,94987.05
2018-09-09T11:43:29.180Z,94983.30
2018-09-09T11:45:58.217Z,94987.63
2018-09-09T11:48:27.301Z,94987.27
2018-09-09T11:50:56.555Z,94992.65
2018-09-09T11:53:25.617Z,94992.48
2018-09-09T11:55:54.624Z,94995.31
2018-09-09T11:58:23.351Z,95003.66
2018-09-09T12:00:52.211Z,95004.77
2018-09-09T12:03:20.939Z,95002.45
2018-09-09T12:05:49.603Z,94989.94
2018-09-09T12:08:18.734Z,94997.89
2018-09-09T12:10:47.750Z,95001.24
2018-09-09T12:13:16.687Z,95000.34
2018-09-09T12:15:45.543Z,94998.34
2018-09-09T12:18:14.532Z,94998.02
2018-09-09T12:20:43.588Z,94994.42
2018-09-09T12:23:12.518Z,94988.39
2018-09-09T12:25:41.508Z,94985.09
2018-09-09T12:28:10.419Z,94977.67
2018-09-09T12:30:39.134Z,94978.59
2018-09-09T12:33:07.939Z,94976.13
2018-09-09T12:35:36.630Z,94978.30
2018-09-09T12:38:05.550Z,94966.47
2018-09-09T12:40:34.353Z,94966.30
2018-09-09T12:43:08.556Z,94966.98
2018-09-09T12:45:42.842Z,94964.36
2018-09-09T12:48:16.940Z,94975.91
2018-09-09T12:50:46.246Z,94988.44
2018-09-09T12:53:15.312Z,94991.81
2018-09-09T12:55:44.315Z,95002.17
2018-09-09T12:58:13.113Z,94994.44
2018-09-09T13:00:41.895Z,95005.68
2018-09-09T13:03:10.694Z,95009.11
2018-09-09T13:05:39.643Z,94995.41
2018-09-09T13:08:09.030Z,94992.31
2018-09-09T13:10:38.274Z,94993.66
2018-09-09T13:13:12.666Z,94995.59
2018-09-09T13:15:41.776Z,94992.81
2018-09-09T13:18:10.775Z,94993.87
2018-09-09T13:20:39.567Z,94992.05
2018-09-09T13:23:08.873Z,94992.47
2018-09-09T13:25:37.633Z,94945.23
2018-09-09T13:28:06.527Z,95004.91
2018-09-09T13:30:35.518Z,95009.56
2018-09-09T13:33:04.290Z,95020.74
2018-09-09T13:35:33.390Z,95021.37
2018-09-09T13:38:02.270Z,95028.64
2018-09-09T13:40:31.210Z,95026.75
2018-09-09T13:43:00.368Z,95035.02
2018-09-09T13:45:29.397Z,95036.09
2018-09-09T13:47:58.540Z,95033.56
2018-09-09T13:50:27.488Z,95025.08
2018-09-09T13:52:56.427Z,95027.09
2018-09-09T13:55:25.333Z,95010.99
2018-09-09T13:57:54.510Z,95015.33
2018-09-09T14:00:23.331Z,95009.03
2018-09-09T14:02:52.154Z,95007.38
2018-09-09T14:05:21.230Z,95003.11
2018-09-09T14:07:50.022Z,95005.31
2018-09-09T14:10:19.191Z,95000.89
2018-09-09T14:12:48.132Z,94996.66
2018-09-09T14:15:17.535Z,95000.73
2018-09-09T14:17:46.776Z,95018.20
2018-09-09T14:20:15.826Z,95011.56
2018-09-09T14:22:45.140Z,95002.74
2018-09-09T14:25:14.212Z,94999.93
2018-09-09T14:27:43.074Z,95011.03
2018-09-09T14:30:11.763Z,95009.20
2018-09-09T14:32:40.564Z,95004.54
2018-09-09T14:35:09.380Z,94998.53
2018-09-09T14:37:38.364Z,95020.53
2018-09-09T14:40:07.436Z,95002.22
2018-09-09T14:42:36.328Z,95006.34
2018-09-09T14:45:05.204Z,95011.70
2018-09-09T14:47:34.447Z,94999.64
2018-09-09T14:50:03.449Z,94947.43
2018-09-09T14:52:32.252Z,95003.31
2018-09-09T14:55:01.323Z,95011.58
2018-09-09T14:57:30.300Z,95008.27
2018-09-09T14:59:58.918Z,95001.77
2018-09-09T15:02:27.742Z,95000.34
2018-09-09T15:04:56.407Z,95007.87
2018-09-09T15:07:25.208Z,94996.62
2018-09-09T15:09:54.192Z,95004.19
2018-09-09T15:12:22.980Z,95001.34
2018-09-09T15:14:51.958Z,95004.11
2018-09-09T15:17:21.274Z,95013.20
2018-09-09T15:19:50.228Z,94990.55
2018-09-09T15:22:19.105Z,95017.94
2018-09-09T15:24:47.895Z,95007.69
2018-09-09T15:27:16.706Z,95004.92
2018-09-09T15:29:45.718Z,95014.02
2018-09-09T15:32:14.599Z,95015.98
2018-09-09T15:34:43.526Z,95005.77
2018-09-09T15:37:12.467Z,95008.91
2018-09-09T15:39:41.336Z,95029.34
2018-09-09T15:42:10.281Z,95022.83
2018-09-09T15:44:39.486Z,95026.79
2018-09-09T15:47:08.473Z,95025.41
2018-09-09T15:49:37.329Z,95020.51
2018-09-09T15:52:06.149Z,95027.73
2018-09-09T15:54:34.883Z,95029.58
2018-09-09T15:57:03.826Z,95033.05
2018-09-09T15:59:32.656Z,95021.63
2018-09-09T16:02:01.489Z,95040.99
2018-09-09T16:04:30.550Z,95032.39
2018-09-09T16:06:59.533Z,95035.48
2018-09-09T16:09:28.497Z,95021.58
2018-09-09T16:11:57.595Z,95036.63
2018-09-09T16:14:26.656Z,95038.01
2018-09-09T16:16:57.879Z,95038.94
2018-09-09T16:19:26.940Z,95036.35
2018-09-09T16:21:56.028Z,95050.02
2018-09-09T16:24:25.322Z,95040.38
2018-09-09T16:26:54.125Z,95040.12
2018-09-09T16:29:22.893Z,95039.67
2018-09-09T16:31:51.682Z,95042.01
2018-09-09T16:34:20.723Z,95059.50
2018-09-09T16:36:49.972Z,95056.05
2018-09-09T16:39:18.968Z,95053.91
2018-09-09T16:41:48.190Z,95060.23
2018-09-09T16:44:17.136Z,95061.94
2018-09-09T16:46:46.252Z,95045.86
2018-09-09T16:49:15.515Z,95052.94
2018-09-09T16:51:44.701Z,95061.01
2018-09-09T16:54:13.747Z,95059.88
2018-09-09T16:56:42.561Z,95065.87
2018-09-09T16:59:11.344Z,95066.08
2018-09-09T17:01:40.348Z,95064.79
2018-09-09T17:04:09.356Z,95075.87
2018-09-09T17:06:38.225Z,95061.80
2018-09-09T17:09:09.946Z,95084.70
2018-09-09T17:11:39.048Z,95076.87
2018-09-09T17:14:08.130Z,95070.69
2018-09-09T17:16:37.202Z,95081.81
2018-09-09T17:19:06.014Z,95074.98
2018-09-09T17:21:34.943Z,95088.58
2018-09-09T17:24:04.054Z,95079.65
2018-09-09T17:26:33.255Z,95086.84
2018-09-09T17:29:02.045Z,95085.65
2018-09-09T17:31:30.822Z,95087.34
2018-09-09T17:33:59.968Z,95094.14
2018-09-09T17:36:29.115Z,95082.83
2018-09-09T17:38:58.271Z,95107.50
2018-09-09T17:41:27.031Z,95111.28
2018-09-09T17:43:56.147Z,95111.73
2018-09-09T17:46:24.842Z,95112.33
2018-09-09T17:48:53.921Z,95117.13
2018-09-09T17:51:22.835Z,95053.36
2018-09-09T17:53:51.911Z,95121.38
2018-09-09T17:56:20.690Z,95122.47
2018-09-09T17:58:49.619Z,95126.49
2018-09-09T18:01:18.486Z,95122.87
2018-09-09T18:03:47.687Z,95128.12
2018-09-09T18:06:16.592Z,95132.77
2018-09-09T18:08:45.591Z,95134.28
2018-09-09T18:11:14.704Z,95138.05
2018-09-09T18:13:43.810Z,95134.40
2018-09-09T18:16:12.651Z,95139.83
2018-09-09T18:18:41.558Z,95138.86
2018-09-09T18:21:10.659Z,95145.94
2018-09-09T18:23:39.915Z,95151.78
2018-09-09T18:26:08.663Z,95151.23
2018-09-09T18:28:37.515Z,95153.95
2018-09-09T18:31:06.367Z,95160.03
2018-09-09T18:33:35.280Z,95160.12
2018-09-09T18:36:04.150Z,95153.05
2018-09-09T18:38:33.064Z,95165.81
2018-09-09T18:41:01.812Z,95164.77
2018-09-09T18:43:30.670Z,95161.72
2018-09-09T18:45:59.411Z,95154.11
2018-09-09T18:48:28.463Z,95167.92
2018-09-09T18:50:57.653Z,95162.42
2018-09-09T18:53:26.490Z,95161.05
2018-09-09T18:55:55.246Z,95169.77
2018-09-09T18:58:24.110Z,95164.29
2018-09-09T19:00:52.990Z,95168.10
2018-09-09T19:03:21.803Z,95167.44
2018-09-09T19:05:50.733Z,95169.81
2018-09-09T19:08:19.534Z,95166.26
2018-09-09T19:10:48.844Z,95176.19
2018-09-09T19:13:17.731Z,95179.06
2018-09-09T19:15:46.781Z,95180.27
2018-09-09T19:18:16.054Z,95187.74
2018-09-09T19:20:45.141Z,95182.78
2018-09-09T19:23:14.059Z,95177.04
2018-09-09T19:25:42.785Z,95188.41
2018-09-09T19:28:11.391Z,95187.08
2018-09-09T19:30:40.096Z,95189.72
2018-09-09T19:33:09.219Z,95187.38
2018-09-09T19:35:38.467Z,95185.58
2018-09-09T19:38:07.635Z,95179.77
2018-09-09T19:40:36.884Z,95181.95
2018-09-09T19:43:05.617Z,95185.39
2018-09-09T19:45:34.747Z,95188.80
2018-09-09T19:48:03.791Z,95181.50
2018-09-09T19:50:33.055Z,95187.28
2018-09-09T19:53:01.933Z,95182.52
2018-09-09T19:55:30.622Z,95182.78
2018-09-09T19:57:59.295Z,95182.52
2018-09-09T20:00:28.245Z,95174.30
2018-09-09T20:02:57.263Z,95175.13
2018-09-09T20:05:26.438Z,95175.88
2018-09-09T20:07:55.590Z,95182.48
2018-09-09T20:10:24.542Z,95179.58
2018-09-09T20:12:53.617Z,95175.66
2018-09-09T20:15:22.503Z,95181.80
2018-09-09T20:17:51.431Z,95187.13
2018-09-09T20:20:20.311Z,95169.70
2018-09-09T20:22:49.243Z,95172.81
2018-09-09T20:25:18.271Z,95176.05
2018-09-09T20:27:47.001Z,95183.44
2018-09-09T20:30:15.982Z,95180.50
2018-09-09T20:32:45.042Z,95183.20
2018-09-09T20:35:13.968Z,95182.94
2018-09-09T20:37:42.885Z,95177.98
2018-09-09T20:40:11.852Z,95189.06
2018-09-09T20:42:40.655Z,95181.41
2018-09-09T20:45:09.494Z,95180.66
2018-09-09T20:47:38.433Z,95186.42
2018-09-09T20:50:07.447Z,95181.70
2018-09-09T20:52:36.778Z,95188.55
2018-09-09T20:55:05.980Z,95188.82
2018-09-09T20:57:34.630Z,95191.20
2018-09-09T21:00:03.558Z,95180.40
2018-09-09T21:02:32.564Z,95177.47
2018-09-09T21:05:01.751Z,95185.92
2018-09-09T21:07:30.767Z,95186.70
2018-09-09T21:09:59.751Z,95187.55
2018-09-09T21:12:28.911Z,95180.16
2018-09-09T21:14:58.099Z,95182.52
2018-09-09T21:17:27.045Z,95188.56
2018-09-09T21:19:55.857Z,95192.55
2018-09-09T21:22:25.888Z,95190.14
2018-09-09T21:24:54.600Z,95182.52
2018-09-09T21:27:23.375Z,94926.23
2018-09-09T21:29:52.128Z,95187.77
2018-09-09T21:32:21.423Z,95120.14
2018-09-09T21:34:50.381Z,95179.63
2018-09-09T21:37:19.298Z,95181.74
2018-09-09T21:39:48.327Z,95178.60
2018-09-09T21:42:17.426Z,95181.50
2018-09-09T21:44:46.490Z,95185.50
2018-09-09T21:47:15.331Z,95180.70
2018-09-09T21:49:44.197Z,95180.48
2018-09-09T21:52:12.876Z,95178.66
2018-09-09T21:54:41.747Z,95182.31
2018-09-09T21:57:10.527Z,95185.25
2018-09-09T21:59:39.376Z,95184.17
2018-09-09T22:02:09.388Z,95182.90
2018-09-09T22:04:38.894Z,95185.01
2018-09-09T22:07:11.162Z,95173.36
2018-09-09T22:09:40.771Z,95184.47
2018-09-09T22:12:10.663Z,95185.28
2018-09-09T22:14:39.990Z,95181.31
2018-09-09T22:17:09.802Z,95178.43
2018-09-09T22:19:38.789Z,95178.96
2018-09-09T22:22:07.539Z,95171.59
2018-09-09T22:24:42.814Z,95169.23
2018-09-09T22:27:11.596Z,95172.40
2018-09-09T22:29:40.719Z,95171.08
2018-09-09T22:32:09.675Z,95172.94
2018-09-09T22:34:38.874Z,95172.12
2018-09-09T22:37:07.654Z,95168.69
2018-09-09T22:39:36.690Z,95170.79
2018-09-09T22:42:05.991Z,95161.31
2018-09-09T22:44:34.864Z,95165.54
2018-09-09T22:47:04.068Z,95165.78
2018-09-09T22:49:33.031Z,95168.69
2018-09-09T22:52:01.795Z,95168.94
2018-09-09T22:54:30.562Z,95162.88
2018-09-09T22:56:59.293Z,95163.41
2018-09-09T22:59:28.068Z,95164.20
2018-09-09T23:01:57.007Z,95171.07
2018-09-09T23:04:25.928Z,95170.28
2018-09-09T23:06:54.848Z,95167.65
2018-09-09T23:09:23.976Z,95170.30
2018-09-09T23:11:53.056Z,95167.69
2018-09-09T23:14:21.866Z,95170.84
2018-09-09T23:16:51.170Z,95158.72
2018-09-09T23:19:20.580Z,95155.83
2018-09-09T23:21:49.168Z,95161.35
2018-09-09T23:24:17.906Z,95165.56
2018-09-09T23:26:46.712Z,95161.09
2018-09-09T23:29:15.843Z,95165.30
2018-09-09T23:31:44.851Z,95160.83
2018-09-09T23:34:13.946Z,95160.32
2018-09-09T23:36:42.975Z,95164.53
2018-09-09T23:39:12.550Z,95163.47
2018-09-09T23:41:41.385Z,95159.25
2018-09-09T23:44:10.226Z,95160.58
2018-09-09T23:46:39.178Z,95149.48
2018-09-09T23:49:08.554Z,95161.58
2018-09-09T23:51:37.374Z,95162.12
2018-09-09T23:54:06.170Z,95156.05
2018-09-09T23:56:35.002Z,95157.12
2018-09-09T23:59:03.896Z,95162.64
